CheckWX is a tool to help pilots better visualize weather data.  It is not intended as a substitute for an official pre-flight weather briefing.

07:12:28 UTC

EKOD TAF
Odense Airport
Odense, Denmark
TAF EKOD 190552Z 1906/1915 10008KT 9999 SCT020 TEMPO 1906/1909 4000 TSRA BKN040CB

Jun-19@
06:00 UTC

Jun-19 @ 06:00 UTC

Jun-19@
15:00 UTC

Jun-19 @ 15:00 UTC

TAF EKOD 190552Z 1906/1915 10008KT 9999 SCT020
Wind
  • 100° at 8 KTS
Cloud Levels
  • Scattered at 2,000' AGL

Jun-19@
06:00 UTC

Jun-19 @ 06:00 UTC

Jun-19@
09:00 UTC

Jun-19 @ 09:00 UTC

TEMPO 1906/1909 4000 TSRA BKN040CB

Temporary

Temporary Changes expected for less than half the time period

Conditions
Thunderstorm, Rain
Cloud Levels
  • Broken at 4,000' AGL